Metar/Speci

METEOROLOGICAL AERODROME REPORT
STASIUN METEOROLOGI HANG NADIM BATAM
ADDS - METARS form results

Aviation Digital Data Service (ADDS)

Output produced by METARs form (1528 UTC 23 May 2022)
found at http://www.aviationweather.gov/metar/data/
 
METAR text: WIDD 231500Z 36003KT 9999 -RA FEW014 27/25 Q1011 RETS TEMPO TL1530 3000 RA
Conditions at: WIDD (HANG NADIM , ID) observed 1500 UTC 23 May 2022
Temperature: 27.0°C (81°F)
Dewpoint: 25.0°C (77°F) [RH = 89%]
Pressure (altimeter): 29.85 inches Hg (1011.0 mb)
Winds: from the N (360 degrees) at 3 MPH (3 knots; 1.5 m/s)
Visibility: 6 or more miles (10+ km)
Ceiling: at least 12,000 feet AGL
Clouds: few clouds at 1400 feet AGL
Weather: -RA  (light rain)

METAR text: WIDD 231430Z 06004KT 1900 +TSRA FEW013CB SCT014 27/25 Q1011 TEMPO TL1530 3000 RA RMK CB TO N
Conditions at: WIDD (HANG NADIM , ID) observed 1430 UTC 23 May 2022
Temperature: 27.0°C (81°F)
Dewpoint: 25.0°C (77°F) [RH = 89%]
Pressure (altimeter): 29.85 inches Hg (1011.0 mb)
Winds: from the ENE (60 degrees) at 5 MPH (4 knots; 2.1 m/s)
Visibility: 1.18 miles (1.90 km)
Ceiling: at least 12,000 feet AGL
Clouds: few clouds at 1300 feet AGL
scattered clouds at 1400 feet AGL
Weather: +TSRA  (heavy rain associated with thunderstorm(s))

Forecast for: WIDD (HANG NADIM , ID)
Text: TAF WIDD 231100Z 2312/2412 17006KT 9999 SCT014
Forecast period: 1200 UTC 23 May 2022 to 1200 UTC 24 May 2022
Forecast type: FROM: standard forecast or significant change
Winds: from the S (170 degrees) at 7 MPH (6 knots; 3.1 m/s)
Visibility: 6 or more miles (10+ km)
Ceiling: at least 12,000 feet AGL
Clouds: scattered clouds at 1400 feet AGL
Weather: no significant weather forecast for this period

Informasi METAR/SPECI dapat diakses juga di http://aviation.bmkg.go.id